createdAt,value
2017-09-14T00:01:29.195Z,11.03
2017-09-14T00:03:57.369Z,14.90
2017-09-14T00:06:26.005Z,12.80
2017-09-14T00:08:53.432Z,47.60
2017-09-14T00:11:21.739Z,13.93
2017-09-14T00:13:49.195Z,13.90
2017-09-14T00:16:16.598Z,12.27
2017-09-14T00:18:44.775Z,13.27
2017-09-14T00:21:12.196Z,11.97
2017-09-14T00:23:39.618Z,14.97
2017-09-14T00:26:07.043Z,19.50
2017-09-14T00:28:35.210Z,12.33
2017-09-14T00:31:02.626Z,20.70
2017-09-14T00:33:30.051Z,13.17
2017-09-14T00:35:57.458Z,16.23
2017-09-14T00:38:25.642Z,17.50
2017-09-14T00:40:53.875Z,10.77
2017-09-14T00:43:21.282Z,12.63
2017-09-14T00:45:48.706Z,13.93
2017-09-14T00:48:16.915Z,18.20
2017-09-14T00:50:44.331Z,16.33
2017-09-14T00:53:11.756Z,15.17
2017-09-14T00:55:39.173Z,14.93
2017-09-14T00:58:07.372Z,13.77
2017-09-14T01:00:35.459Z,10.90
2017-09-14T01:03:02.919Z,17.33
2017-09-14T01:05:30.339Z,12.17
2017-09-14T01:07:58.564Z,20.13
2017-09-14T01:10:25.988Z,11.73
2017-09-14T01:12:53.403Z,13.70
2017-09-14T01:15:39.477Z,16.27
2017-09-14T01:18:06.905Z,7.33
2017-09-14T01:20:34.344Z,11.00
2017-09-14T01:23:01.756Z,11.07
2017-09-14T01:25:29.933Z,13.13
2017-09-14T01:27:58.119Z,9.00
2017-09-14T01:30:26.326Z,13.40
2017-09-14T01:32:53.743Z,8.43
2017-09-14T01:35:21.918Z,11.63
2017-09-14T01:37:50.129Z,10.57
2017-09-14T01:40:17.554Z,11.37
2017-09-14T01:42:45.737Z,9.27
2017-09-14T01:45:13.934Z,9.33
2017-09-14T01:47:41.358Z,10.10
2017-09-14T01:50:09.564Z,9.47
2017-09-14T01:52:37.056Z,12.10
2017-09-14T01:55:04.484Z,13.03
2017-09-14T01:57:32.347Z,12.40
2017-09-14T01:59:59.776Z,8.00
2017-09-14T02:02:27.216Z,13.23
2017-09-14T02:04:56.134Z,10.33
2017-09-14T02:07:23.554Z,16.43
2017-09-14T02:09:52.479Z,7.63
2017-09-14T02:12:19.913Z,7.30
2017-09-14T02:14:48.105Z,9.37
2017-09-14T02:17:15.550Z,7.87
2017-09-14T02:19:43.728Z,7.90
2017-09-14T02:22:11.934Z,8.67
2017-09-14T02:24:39.361Z,12.47
2017-09-14T02:27:07.540Z,6.47
2017-09-14T02:29:34.970Z,4.47
2017-09-14T02:32:03.162Z,8.17
2017-09-14T02:34:31.391Z,6.30
2017-09-14T02:36:58.821Z,3.10
2017-09-14T02:39:26.234Z,9.00
2017-09-14T02:41:54.418Z,5.20
2017-09-14T02:44:22.628Z,4.30
2017-09-14T02:46:50.039Z,4.67
2017-09-14T02:49:18.228Z,9.40
2017-09-14T02:51:46.988Z,5.23
2017-09-14T02:54:14.995Z,9.63
2017-09-14T02:56:42.940Z,4.30
2017-09-14T02:59:10.445Z,9.27
2017-09-14T03:01:37.867Z,5.50
2017-09-14T03:04:06.091Z,5.90
2017-09-14T03:06:33.503Z,8.23
2017-09-14T03:09:00.923Z,5.50
2017-09-14T03:11:28.342Z,5.17
2017-09-14T03:13:55.758Z,8.53
2017-09-14T03:16:23.946Z,8.70
2017-09-14T03:18:51.395Z,7.37
2017-09-14T03:21:19.575Z,7.60
2017-09-14T03:23:46.994Z,8.47
2017-09-14T03:26:14.935Z,4.80
2017-09-14T03:28:42.358Z,11.43
2017-09-14T03:31:09.855Z,9.40
2017-09-14T03:33:37.291Z,11.43
2017-09-14T03:36:04.711Z,7.77
2017-09-14T03:38:32.912Z,14.50
2017-09-14T03:41:00.343Z,14.27
2017-09-14T03:43:28.536Z,10.13
2017-09-14T03:45:55.952Z,11.00
2017-09-14T03:48:24.898Z,10.70
2017-09-14T03:50:52.323Z,24.07
2017-09-14T03:53:20.543Z,10.93
2017-09-14T03:55:47.986Z,9.67
2017-09-14T03:58:15.422Z,11.17
2017-09-14T04:00:42.847Z,11.10
2017-09-14T04:03:11.073Z,14.77
2017-09-14T04:05:38.532Z,8.77
2017-09-14T04:08:06.002Z,13.73
2017-09-14T04:10:33.820Z,12.10
2017-09-14T04:13:02.027Z,18.90
2017-09-14T04:15:29.486Z,16.60
2017-09-14T04:17:56.912Z,14.23
2017-09-14T04:20:24.351Z,16.07
2017-09-14T04:22:53.467Z,15.87
2017-09-14T04:25:20.896Z,12.23
2017-09-14T04:27:48.327Z,16.70
2017-09-14T04:30:15.763Z,14.73
2017-09-14T04:32:43.190Z,22.17
2017-09-14T04:35:11.390Z,17.97
2017-09-14T04:37:38.847Z,19.90
2017-09-14T04:40:06.316Z,23.57
2017-09-14T04:42:33.739Z,16.37
2017-09-14T04:45:01.216Z,23.53
2017-09-14T04:47:28.650Z,21.70
2017-09-14T04:49:56.095Z,24.17
2017-09-14T04:52:23.507Z,24.43
2017-09-14T04:54:50.962Z,19.70
2017-09-14T04:57:18.401Z,20.50
2017-09-14T04:59:46.363Z,19.93
2017-09-14T05:02:13.829Z,19.40
2017-09-14T05:04:41.278Z,27.33
2017-09-14T05:07:08.739Z,31.43
2017-09-14T05:09:36.199Z,20.63
2017-09-14T05:12:03.649Z,24.40
2017-09-14T05:14:31.726Z,30.40
2017-09-14T05:16:59.162Z,25.17
2017-09-14T05:19:26.578Z,29.33
2017-09-14T05:21:54.006Z,20.60
2017-09-14T05:24:21.458Z,25.53
2017-09-14T05:26:48.904Z,29.03
2017-09-14T05:29:16.346Z,23.20
2017-09-14T05:31:43.762Z,23.03
2017-09-14T05:34:11.184Z,25.03
2017-09-14T05:36:38.639Z,24.47
2017-09-14T05:39:06.124Z,26.93
2017-09-14T05:41:33.651Z,25.97
2017-09-14T05:44:01.054Z,34.80
2017-09-14T05:46:29.276Z,22.93
2017-09-14T05:48:56.706Z,21.83
2017-09-14T05:51:24.118Z,24.63
2017-09-14T05:53:51.552Z,22.67
2017-09-14T05:56:19.038Z,17.80
2017-09-14T05:58:46.634Z,25.30
2017-09-14T06:01:14.802Z,27.63
2017-09-14T06:03:43.005Z,27.10
2017-09-14T06:06:10.435Z,23.00
2017-09-14T06:08:38.639Z,23.37
2017-09-14T06:11:06.101Z,26.70
2017-09-14T06:13:33.515Z,27.53
2017-09-14T06:16:01.722Z,21.50
2017-09-14T06:18:29.283Z,37.17
2017-09-14T06:20:56.710Z,24.60
2017-09-14T06:23:24.923Z,22.50
2017-09-14T06:25:52.383Z,27.73
2017-09-14T06:28:19.839Z,28.00
2017-09-14T06:30:47.254Z,19.97
2017-09-14T06:33:14.690Z,23.57
2017-09-14T06:35:42.889Z,24.90
2017-09-14T06:38:11.088Z,27.37
2017-09-14T06:40:38.528Z,24.70
2017-09-14T06:43:05.951Z,26.37
2017-09-14T06:45:33.379Z,17.43
2017-09-14T06:48:00.827Z,29.63
2017-09-14T06:50:28.285Z,21.20
2017-09-14T06:52:55.714Z,21.03
2017-09-14T06:55:23.908Z,25.27
2017-09-14T06:57:51.787Z,21.47
2017-09-14T07:00:19.842Z,19.40
2017-09-14T07:02:47.251Z,19.03
2017-09-14T07:05:15.433Z,17.33
2017-09-14T07:07:43.676Z,20.00
2017-09-14T07:10:11.126Z,24.60
2017-09-14T07:12:38.630Z,15.67
2017-09-14T07:15:06.134Z,20.50
2017-09-14T07:17:33.581Z,18.63
2017-09-14T07:20:01.006Z,22.27
2017-09-14T07:22:28.435Z,16.20
2017-09-14T07:24:55.872Z,18.03
2017-09-14T07:27:23.331Z,19.40
2017-09-14T07:29:52.262Z,23.23
2017-09-14T07:32:19.755Z,21.90
2017-09-14T07:34:47.180Z,17.73
2017-09-14T07:37:14.611Z,24.20
2017-09-14T07:39:42.786Z,17.23
2017-09-14T07:42:11.119Z,21.93
2017-09-14T07:44:38.550Z,20.50
2017-09-14T07:47:06.466Z,21.70
2017-09-14T07:49:33.918Z,16.13
2017-09-14T07:52:01.453Z,18.97
2017-09-14T07:54:28.909Z,23.87
2017-09-14T07:56:56.368Z,20.47
2017-09-14T07:59:24.647Z,19.73
2017-09-14T08:01:52.058Z,19.83
2017-09-14T08:04:20.480Z,18.70
2017-09-14T08:06:47.910Z,19.57
2017-09-14T08:09:15.366Z,24.50
2017-09-14T08:11:42.787Z,25.90
2017-09-14T08:14:10.210Z,19.43
2017-09-14T08:16:37.622Z,20.13
2017-09-14T08:19:05.047Z,24.87
2017-09-14T08:21:32.490Z,17.20
2017-09-14T08:23:59.919Z,19.10
2017-09-14T08:26:27.319Z,22.40
2017-09-14T08:28:54.749Z,21.63
2017-09-14T08:31:22.173Z,18.23
2017-09-14T08:33:49.954Z,20.70
2017-09-14T08:36:17.431Z,22.70
2017-09-14T08:38:44.885Z,21.00
2017-09-14T08:41:12.311Z,16.20
2017-09-14T08:43:39.742Z,20.27
2017-09-14T08:46:07.242Z,23.47
2017-09-14T08:48:34.669Z,27.67
2017-09-14T08:51:02.882Z,16.93
2017-09-14T08:53:31.835Z,20.67
2017-09-14T08:55:59.263Z,23.30
2017-09-14T08:58:27.468Z,20.00
2017-09-14T09:00:54.895Z,19.70
2017-09-14T09:03:23.942Z,21.47
2017-09-14T09:05:51.342Z,18.77
2017-09-14T09:08:19.340Z,20.43
2017-09-14T09:10:46.822Z,19.17
2017-09-14T09:13:15.327Z,17.73
2017-09-14T09:15:42.811Z,15.90
2017-09-14T09:18:11.010Z,16.30
2017-09-14T09:20:38.495Z,17.17
2017-09-14T09:23:06.267Z,16.53
2017-09-14T09:25:34.056Z,25.90
2017-09-14T09:28:03.003Z,19.13
2017-09-14T09:30:30.432Z,22.10
2017-09-14T09:32:58.614Z,18.47
2017-09-14T09:35:26.464Z,25.13
2017-09-14T09:37:55.068Z,14.98
2017-09-14T09:40:22.499Z,15.90
2017-09-14T09:42:49.911Z,15.67
2017-09-14T09:45:17.335Z,18.53
2017-09-14T09:47:44.765Z,18.93
2017-09-14T09:50:12.961Z,16.40
2017-09-14T09:52:41.121Z,16.40
2017-09-14T09:55:09.330Z,19.40
2017-09-14T09:57:36.772Z,28.93
2017-09-14T10:00:04.518Z,16.53
2017-09-14T10:02:32.699Z,19.73
2017-09-14T10:05:00.116Z,22.33
2017-09-14T10:07:27.599Z,19.30
2017-09-14T10:09:55.750Z,15.00
2017-09-14T10:12:23.183Z,20.70
2017-09-14T10:14:50.611Z,19.33
2017-09-14T10:17:18.050Z,18.33
2017-09-14T10:19:46.091Z,21.10
2017-09-14T10:22:13.519Z,21.83
2017-09-14T10:24:40.955Z,16.87
2017-09-14T10:27:08.384Z,17.80
2017-09-14T10:29:35.790Z,9.80
2017-09-14T10:32:03.251Z,11.23
2017-09-14T10:34:30.658Z,12.33
2017-09-14T10:36:58.138Z,10.57
2017-09-14T10:39:25.556Z,7.97
2017-09-14T10:41:53.728Z,10.40
2017-09-14T10:44:21.942Z,9.73
2017-09-14T10:46:49.908Z,8.40
2017-09-14T10:49:17.327Z,7.33
2017-09-14T10:51:45.503Z,7.87
2017-09-14T10:54:13.710Z,11.00
2017-09-14T10:56:41.136Z,6.43
2017-09-14T10:59:09.308Z,9.03
2017-09-14T11:01:37.498Z,10.33
2017-09-14T11:04:04.925Z,9.90
2017-09-14T11:06:32.342Z,7.53
2017-09-14T11:08:59.788Z,5.57
2017-09-14T11:11:27.205Z,7.80
2017-09-14T11:13:55.418Z,8.60
2017-09-14T11:16:22.834Z,5.70
2017-09-14T11:18:51.027Z,8.27
2017-09-14T11:21:18.461Z,4.57
2017-09-14T11:23:46.640Z,11.37
2017-09-14T11:26:14.824Z,5.80
2017-09-14T11:28:42.240Z,5.67
2017-09-14T11:31:09.778Z,11.07
2017-09-14T11:33:37.187Z,5.50
2017-09-14T11:36:04.606Z,5.20
2017-09-14T11:38:32.045Z,5.70
2017-09-14T11:40:59.487Z,5.50
2017-09-14T11:43:27.779Z,5.70
2017-09-14T11:45:55.183Z,5.40
2017-09-14T11:48:23.367Z,6.37
2017-09-14T11:50:50.779Z,3.07
2017-09-14T11:53:18.304Z,7.80
2017-09-14T11:55:45.754Z,5.10
2017-09-14T11:58:13.187Z,4.60
2017-09-14T12:00:41.372Z,4.43
2017-09-14T12:03:08.844Z,2.40
2017-09-14T12:05:36.426Z,2.50
2017-09-14T12:08:03.860Z,2.80
2017-09-14T12:10:31.344Z,3.73
2017-09-14T12:12:58.750Z,1.50
2017-09-14T12:15:26.253Z,1.40
2017-09-14T12:17:54.586Z,2.57
2017-09-14T12:20:22.813Z,1.33
2017-09-14T12:22:50.239Z,1.63
2017-09-14T12:25:18.255Z,1.87
2017-09-14T12:27:45.676Z,2.03
2017-09-14T12:30:13.084Z,7.40
2017-09-14T12:32:41.255Z,3.63
2017-09-14T12:35:09.472Z,2.63
2017-09-14T12:37:36.862Z,1.77
2017-09-14T12:40:04.386Z,3.83
2017-09-14T12:42:31.779Z,1.20
2017-09-14T12:44:59.297Z,2.57
2017-09-14T12:47:26.799Z,1.43
2017-09-14T12:49:54.236Z,3.33
2017-09-14T12:52:21.663Z,2.83
2017-09-14T12:54:49.074Z,2.57
2017-09-14T12:57:16.499Z,2.20
2017-09-14T12:59:43.923Z,1.97
2017-09-14T13:02:11.322Z,3.80
2017-09-14T13:04:38.747Z,1.70
2017-09-14T13:07:06.186Z,2.23
2017-09-14T13:09:33.595Z,4.70
2017-09-14T13:12:01.001Z,3.93
2017-09-14T13:14:28.431Z,2.13
2017-09-14T13:16:56.612Z,8.80
2017-09-14T13:19:24.788Z,3.73
2017-09-14T13:21:52.979Z,2.77
2017-09-14T13:24:20.391Z,3.03
2017-09-14T13:26:48.007Z,4.77
2017-09-14T13:29:15.407Z,7.40
2017-09-14T13:31:42.852Z,3.70
2017-09-14T13:34:10.894Z,5.20
2017-09-14T13:36:38.315Z,2.90
2017-09-14T13:39:05.737Z,2.40
2017-09-14T13:41:33.147Z,2.43
2017-09-14T13:44:00.587Z,5.73
2017-09-14T13:46:28.764Z,2.60
2017-09-14T13:48:56.183Z,5.07
2017-09-14T13:51:23.619Z,3.00
2017-09-14T13:53:51.031Z,6.20
2017-09-14T13:56:18.507Z,3.67
2017-09-14T13:58:45.991Z,1.53
2017-09-14T14:01:13.400Z,2.67
2017-09-14T14:03:40.830Z,2.93
2017-09-14T14:06:09.743Z,3.03
2017-09-14T14:08:37.915Z,8.77
2017-09-14T14:11:05.339Z,3.47
2017-09-14T14:13:32.751Z,2.50
2017-09-14T14:16:00.224Z,5.73
2017-09-14T14:18:27.617Z,6.63
2017-09-14T14:20:55.023Z,4.10
2017-09-14T14:23:22.476Z,4.20
2017-09-14T14:25:49.882Z,5.27
2017-09-14T14:28:17.298Z,4.00
2017-09-14T14:30:44.726Z,2.20
2017-09-14T14:33:12.899Z,3.00
2017-09-14T14:35:40.311Z,4.03
2017-09-14T14:38:08.555Z,4.83
2017-09-14T14:40:35.962Z,3.73
2017-09-14T14:43:04.186Z,15.23
2017-09-14T14:45:31.591Z,5.23
2017-09-14T14:47:59.784Z,5.30
2017-09-14T14:50:28.027Z,6.10
2017-09-14T14:52:55.451Z,5.47
2017-09-14T14:55:22.859Z,4.90
2017-09-14T14:57:51.054Z,6.80
2017-09-14T15:00:18.488Z,7.70
2017-09-14T15:02:46.663Z,8.67
2017-09-14T15:05:14.842Z,4.93
2017-09-14T15:07:42.331Z,7.37
2017-09-14T15:10:09.783Z,4.43
2017-09-14T15:12:37.194Z,3.43
2017-09-14T15:15:06.142Z,7.60
2017-09-14T15:17:33.846Z,8.73
2017-09-14T15:20:01.247Z,6.70
2017-09-14T15:22:28.928Z,8.23
2017-09-14T15:24:56.335Z,4.50
2017-09-14T15:27:24.888Z,4.80
2017-09-14T15:29:52.320Z,3.47
2017-09-14T15:32:19.767Z,5.10
2017-09-14T15:34:47.220Z,4.73
2017-09-14T15:37:20.568Z,3.67
2017-09-14T15:39:53.767Z,3.80
2017-09-14T15:42:27.742Z,8.27
2017-09-14T15:45:00.884Z,7.60
2017-09-14T15:47:29.857Z,7.57
2017-09-14T15:50:02.992Z,7.23
2017-09-14T15:52:30.512Z,8.13
2017-09-14T15:54:58.720Z,5.27
2017-09-14T15:57:26.252Z,4.33
2017-09-14T15:59:54.411Z,5.00
2017-09-14T16:02:22.594Z,5.40
2017-09-14T16:04:50.811Z,2.80
2017-09-14T16:07:18.223Z,1.63
2017-09-14T16:09:46.406Z,3.43
2017-09-14T16:12:13.843Z,2.40
2017-09-14T16:14:42.041Z,2.00
2017-09-14T16:17:09.450Z,6.23
2017-09-14T16:19:36.924Z,2.40
2017-09-14T16:22:04.363Z,3.37
2017-09-14T16:24:31.795Z,2.77
2017-09-14T16:26:59.224Z,3.73
2017-09-14T16:29:26.654Z,3.23
2017-09-14T16:31:54.831Z,4.60
2017-09-14T16:34:23.801Z,4.50
2017-09-14T16:36:51.991Z,3.03
2017-09-14T16:39:20.167Z,3.27
2017-09-14T16:41:48.360Z,2.50
2017-09-14T16:44:16.545Z,2.60
2017-09-14T16:46:43.975Z,3.20
2017-09-14T16:49:12.207Z,1.70
2017-09-14T16:51:39.658Z,2.03
2017-09-14T16:54:07.089Z,3.37
2017-09-14T16:56:34.528Z,4.50
2017-09-14T16:59:02.743Z,1.70
2017-09-14T17:01:30.153Z,2.23
2017-09-14T17:03:58.345Z,3.20
2017-09-14T17:06:25.813Z,4.20
2017-09-14T17:08:53.248Z,3.30
2017-09-14T17:11:20.673Z,2.80
2017-09-14T17:13:48.103Z,1.60
2017-09-14T17:16:15.542Z,1.97
2017-09-14T17:18:42.967Z,1.50
2017-09-14T17:21:11.161Z,1.40
2017-09-14T17:23:39.340Z,2.73
2017-09-14T17:26:06.803Z,2.80
2017-09-14T17:28:34.204Z,2.30
2017-09-14T17:31:01.635Z,1.47
2017-09-14T17:33:29.034Z,1.20
2017-09-14T17:35:56.855Z,3.80
2017-09-14T17:38:24.354Z,1.60
2017-09-14T17:40:52.555Z,5.10
2017-09-14T17:43:19.982Z,1.40
2017-09-14T17:45:48.187Z,7.03
2017-09-14T17:48:15.604Z,2.03
2017-09-14T17:50:43.051Z,1.60
2017-09-14T17:53:10.480Z,2.70
2017-09-14T17:55:37.922Z,2.23
2017-09-14T17:58:05.380Z,2.07
2017-09-14T18:00:32.783Z,2.60
2017-09-14T18:03:00.978Z,2.50
2017-09-14T18:05:28.422Z,2.70
2017-09-14T18:07:56.611Z,2.57
2017-09-14T18:10:24.040Z,1.73
2017-09-14T18:12:52.240Z,1.73
2017-09-14T18:15:20.407Z,1.70
2017-09-14T18:17:48.587Z,2.50
2017-09-14T18:20:16.034Z,3.10
2017-09-14T18:22:44.598Z,2.03
2017-09-14T18:25:12.779Z,2.03
2017-09-14T18:27:40.986Z,2.20
2017-09-14T18:30:09.159Z,2.07
2017-09-14T18:32:36.582Z,1.93
2017-09-14T18:35:04.762Z,2.47
2017-09-14T18:37:32.939Z,3.70
2017-09-14T18:40:01.146Z,3.83
2017-09-14T18:42:28.605Z,2.00
2017-09-14T18:44:56.031Z,1.70
2017-09-14T18:47:24.351Z,2.97
2017-09-14T18:49:51.763Z,5.13
2017-09-14T18:52:19.198Z,3.53
2017-09-14T18:54:46.623Z,1.97
2017-09-14T18:57:14.042Z,1.80
2017-09-14T18:59:41.468Z,2.20
2017-09-14T19:02:10.424Z,2.20
2017-09-14T19:04:37.840Z,4.03
2017-09-14T19:07:05.273Z,2.47
2017-09-14T19:09:32.675Z,2.57
2017-09-14T19:12:00.133Z,3.60
2017-09-14T19:14:27.560Z,2.87
2017-09-14T19:16:55.047Z,2.70
2017-09-14T19:19:22.475Z,2.70
2017-09-14T19:21:49.913Z,3.43
2017-09-14T19:24:17.327Z,3.57
2017-09-14T19:26:44.744Z,3.83
2017-09-14T19:29:12.926Z,4.60
2017-09-14T19:31:40.408Z,6.20
2017-09-14T19:34:07.816Z,6.73
2017-09-14T19:36:36.650Z,5.40
2017-09-14T19:39:04.083Z,7.00
2017-09-14T19:41:31.518Z,8.40
2017-09-14T19:43:59.691Z,7.83
2017-09-14T19:46:27.884Z,9.03
2017-09-14T19:48:55.308Z,9.77
2017-09-14T19:51:22.742Z,6.77
2017-09-14T19:53:50.149Z,7.83
2017-09-14T19:56:18.339Z,8.83
2017-09-14T19:58:45.767Z,10.53
2017-09-14T20:01:13.999Z,10.03
2017-09-14T20:03:41.432Z,9.40
2017-09-14T20:06:08.891Z,7.80
2017-09-14T20:08:36.314Z,10.43
2017-09-14T20:11:04.511Z,14.60
2017-09-14T20:13:31.927Z,12.03
2017-09-14T20:15:59.415Z,11.40
2017-09-14T20:18:26.892Z,10.30
2017-09-14T20:20:54.316Z,13.80
2017-09-14T20:23:22.500Z,10.83
2017-09-14T20:25:49.930Z,13.30
2017-09-14T20:28:18.455Z,10.17
2017-09-14T20:30:45.871Z,9.50
2017-09-14T20:33:14.084Z,10.00
2017-09-14T20:35:41.477Z,9.40
2017-09-14T20:38:09.000Z,11.17
2017-09-14T20:40:36.430Z,13.00
2017-09-14T20:43:03.864Z,15.80
2017-09-14T20:45:31.282Z,11.23
2017-09-14T20:47:58.720Z,11.00
2017-09-14T20:50:26.179Z,11.40
2017-09-14T20:52:53.590Z,12.77
2017-09-14T20:55:21.780Z,8.60
2017-09-14T20:57:49.977Z,9.10
2017-09-14T21:00:17.395Z,8.37
2017-09-14T21:02:44.900Z,10.20
2017-09-14T21:05:12.362Z,9.83
2017-09-14T21:07:39.791Z,10.50
2017-09-14T21:10:08.003Z,11.43
2017-09-14T21:12:35.491Z,5.70
2017-09-14T21:15:02.906Z,9.80
2017-09-14T21:17:30.340Z,10.80
2017-09-14T21:19:57.769Z,10.17
2017-09-14T21:22:25.188Z,4.50
2017-09-14T21:24:52.659Z,7.20
2017-09-14T21:27:20.131Z,6.60
2017-09-14T21:29:47.594Z,6.10
2017-09-14T21:32:15.004Z,6.50
2017-09-14T21:34:42.473Z,4.90
2017-09-14T21:37:09.917Z,7.70
2017-09-14T21:39:37.346Z,6.40
2017-09-14T21:42:04.951Z,7.10
2017-09-14T21:47:26.414Z,6.47
2017-09-14T21:49:54.604Z,4.53
2017-09-14T21:52:22.780Z,8.17
2017-09-14T21:54:51.090Z,7.60
2017-09-14T21:57:18.550Z,11.70
2017-09-14T21:59:45.984Z,7.13
2017-09-14T22:02:13.407Z,6.63
2017-09-14T22:04:41.644Z,4.77
2017-09-14T22:07:09.111Z,10.10
2017-09-14T22:09:36.556Z,9.53
2017-09-14T22:12:04.028Z,11.57
2017-09-14T22:14:31.463Z,9.60
2017-09-14T22:16:58.884Z,14.63
2017-09-14T22:19:26.327Z,12.03
2017-09-14T22:21:54.523Z,11.07
2017-09-14T22:24:21.954Z,10.63
2017-09-14T22:26:50.184Z,11.77
2017-09-14T22:29:17.639Z,9.87
2017-09-14T22:31:45.090Z,11.47
2017-09-14T22:34:12.519Z,8.97
2017-09-14T22:36:40.011Z,10.00
2017-09-14T22:39:07.491Z,12.13
2017-09-14T22:41:34.924Z,25.20
2017-09-14T22:44:02.388Z,16.03
2017-09-14T22:46:29.838Z,8.17
2017-09-14T22:48:57.251Z,10.93
2017-09-14T22:51:24.750Z,13.00
2017-09-14T22:53:52.161Z,13.40
2017-09-14T22:56:20.348Z,13.60
2017-09-14T22:58:47.779Z,13.50
2017-09-14T23:01:15.196Z,17.87
2017-09-14T23:03:42.629Z,18.17
2017-09-14T23:06:10.051Z,11.77
2017-09-14T23:08:38.270Z,20.87
2017-09-14T23:11:05.703Z,10.77
2017-09-14T23:13:33.133Z,14.57
2017-09-14T23:16:00.553Z,16.00
2017-09-14T23:18:27.981Z,10.90
2017-09-14T23:20:55.430Z,12.90
2017-09-14T23:23:22.845Z,17.73
2017-09-14T23:25:50.295Z,13.83
2017-09-14T23:28:17.775Z,12.43
2017-09-14T23:30:45.383Z,20.63
2017-09-14T23:33:12.808Z,13.83
2017-09-14T23:35:40.255Z,10.80
2017-09-14T23:38:08.463Z,19.00
2017-09-14T23:40:35.891Z,10.60
2017-09-14T23:43:03.340Z,15.40
2017-09-14T23:45:31.531Z,13.93
2017-09-14T23:47:58.969Z,19.43
2017-09-14T23:50:27.151Z,16.50
2017-09-14T23:52:54.604Z,17.43
2017-09-14T23:55:22.779Z,13.43
2017-09-14T23:57:50.223Z,12.70
